KBFM/BFM METAR and TAF weather

Enter ICAO airport designator
Station Type Date Time Source
KBFM METAR 2020/04/09 19:53 UTC NOAA

KBFM 091953Z 16008KT 10SM CLR 29/23 A2983 RMK AO2 SLP099 T02890228


Station Type Date Time Source
KBFM Decoded METAR 2020/04/09 19:53 UTC NOAA

MOBILE DOWNTOWN AIRPORT, AL, United States (KBFM) 30-38N 88-04W 20M
Apr 09, 2020 - 03:53 PM EDT / 2020.04.09 1953 UTC
Wind: from the SSE (160 degrees) at 9 MPH (8 KT):0
Visibility: 10 mile(s):0
Sky conditions: clear
Temperature: 84.0 F (28.9 C)
Dew Point: 73.0 F (22.8 C)
Relative Humidity: 69%
Pressure (altimeter): 29.83 in. Hg (1010 hPa)
ob: KBFM 091953Z 16008KT 10SM CLR 29/23 A2983 RMK AO2 SLP099 T02890228
cycle: 20

Station Type Date Time Source
KBFM TAF 2020/04/09 18:42 UTC NOAA

TAF KBFM 091738Z 0918/1018 31006KT P6SM BKN029 BKN035
FM092200 29004KT P6SM BKN120 PROB30 1003/1009 4SM -SHRA OVC025
FM101200 02010G18KT P6SM OVC021 PROB30 1012/1017 4SM -SHRA OVC015

Example: see airport list